Terminal Aerodrome Forecast
Issued by NWS

Home | Current Version | Previous Version | Text Only | Print | Product List | Glossary On
Versions: 1 2 3 4 5 6 7 8 9 10 11 12 13 14 15 16 17 18 19 20
223
FTAK31 PAJN 130520
TAFAJN
TAF
PAJN 130520Z 1306/1406 11011KT P6SM VCSH FEW020 BKN035 OVC060
     FM131600 09007KT P6SM -SHRA BKN035 OVC050
     FM132200 10009KT P6SM VCSH BKN040 OVC060=

USA.gov is the U.S. government's official web portal to all federal, state and local government web resources and services.